Time;durP1;ratioP1;P1;durP2;ratioP2;P2;SDS_P1;SDS_P2;PMS_P1;PMS_P2;Temp;Humidity;BMP_temperature;BMP_pressure;BME280_temperature;BME280_humidity;BME280_pressure;Samples;Min_cycle;Max_cycle;Signal;HPM_P1;HPM_P2
2023/03/27 00:00:15;;;;;;;;;;;9.40;94.20;;;;;;5001069;28;19922;-96
2023/03/27 00:02:43;;;;;;;;;;;9.40;94.50;;;;;;4983918;28;19949;-96
2023/03/27 00:05:09;;;;;;;;;;;9.40;94.70;;;;;;4983263;28;19901;-96
2023/03/27 00:07:40;;;;;;;;;;;9.40;94.80;;;;;;4983591;28;19914;-96
2023/03/27 00:10:07;;;;;;;;;;;9.40;94.90;;;;;;4983154;28;19921;-96
2023/03/27 00:12:33;;;;;;;;;;;9.40;95.00;;;;;;4982037;28;19910;-96
2023/03/27 00:15:00;;;;;;;;;;;9.30;94.90;;;;;;4981999;28;19910;-96
2023/03/27 00:17:26;;;;;;;;;;;9.30;94.90;;;;;;4998823;28;19910;-96
2023/03/27 00:19:52;;;;;;;;;;;9.40;94.90;;;;;;4981754;28;19914;-96
2023/03/27 00:22:19;;;;;;;;;;;9.30;94.70;;;;;;4980883;28;19916;-97
2023/03/27 00:24:45;;;;;;;;;;;9.30;94.70;;;;;;4981105;28;19914;-96
2023/03/27 00:27:12;;;;;;;;;;;9.30;94.60;;;;;;4980564;28;19910;-96
2023/03/27 00:29:40;;;;;;;;;;;9.30;94.70;;;;;;4980890;28;19918;-96
2023/03/27 00:32:07;;;;;;;;;;;9.20;94.80;;;;;;4980267;28;19918;-96
2023/03/27 00:34:32;;;;;;;;;;;9.20;95.00;;;;;;4980316;28;19910;-96
2023/03/27 00:36:59;;;;;;;;;;;9.30;95.00;;;;;;4979401;28;19910;-96
2023/03/27 00:39:25;;;;;;;;;;;9.30;95.10;;;;;;4995725;28;19914;-96
2023/03/27 00:41:51;;;;;;;;;;;9.30;95.20;;;;;;4979367;28;19917;-96
2023/03/27 00:44:30;;;;;;;;;;;9.30;95.20;;;;;;4996527;28;19921;-96
2023/03/27 00:46:56;;;;;;;;;;;9.40;95.20;;;;;;4997119;28;19920;-96
2023/03/27 00:49:22;;;;;;;;;;;9.40;95.00;;;;;;4996501;28;19918;-96
2023/03/27 00:51:51;;;;;;;;;;;9.40;94.90;;;;;;4996562;28;20372;-96
2023/03/27 00:54:24;;;;;;;;;;;9.40;94.80;;;;;;4979534;28;19921;-96
2023/03/27 00:56:50;;;;;;;;;;;9.40;94.80;;;;;;4979468;28;19917;-96
2023/03/27 00:59:20;;;;;;;;;;;9.50;95.00;;;;;;4979417;28;19914;-96
2023/03/27 01:01:46;;;;;;;;;;;9.50;94.90;;;;;;4978674;28;19941;-96
2023/03/27 01:04:12;;;;;;;;;;;9.60;94.80;;;;;;4979269;28;19925;-96
2023/03/27 01:06:40;;;;;;;;;;;9.60;94.80;;;;;;4978512;28;19914;-96
2023/03/27 01:09:08;;;;;;;;;;;9.60;94.90;;;;;;4979117;28;19911;-96
2023/03/27 01:11:34;;;;;;;;;;;9.60;95.00;;;;;;4980002;28;19911;-96
2023/03/27 01:14:26;;;;;;;;;;;9.60;95.00;;;;;;4997228;28;19911;-96
2023/03/27 01:17:06;;;;;;;;;;;9.70;95.20;;;;;;4981149;28;19911;-97
2023/03/27 01:19:37;;;;;;;;;;;9.70;95.10;;;;;;4997238;28;19914;-96
2023/03/27 01:22:17;;;;;;;;;;;9.80;95.10;;;;;;4998465;28;19916;-96
2023/03/27 01:25:13;;;;;;;;;;;9.80;95.00;;;;;;4980911;28;19933;-96
2023/03/27 01:28:01;;;;;;;;;;;9.90;95.10;;;;;;4930160;28;19895;-96
2023/03/27 01:30:33;;;;;;;;;;;9.90;94.90;;;;;;4998627;28;19906;-96
2023/03/27 01:33:18;;;;;;;;;;;9.90;94.90;;;;;;4981601;28;19933;-96
2023/03/27 01:36:00;;;;;;;;;;;10.00;94.90;;;;;;4998335;28;19910;-96
2023/03/27 01:38:33;;;;;;;;;;;10.00;95.00;;;;;;4981767;28;19929;-96
2023/03/27 01:41:12;;;;;;;;;;;10.00;95.00;;;;;;4981212;28;19918;-97
2023/03/27 01:43:49;;;;;;;;;;;10.00;94.80;;;;;;4982051;28;19894;-96
2023/03/27 01:46:20;;;;;;;;;;;10.00;94.90;;;;;;4998816;28;19917;-96
2023/03/27 01:48:52;;;;;;;;;;;10.10;94.90;;;;;;4981669;28;19957;-96
2023/03/27 01:51:31;;;;;;;;;;;10.10;94.90;;;;;;4981545;28;19894;-96
2023/03/27 01:54:01;;;;;;;;;;;10.10;95.00;;;;;;4981603;28;19919;-96
2023/03/27 01:56:31;;;;;;;;;;;10.10;95.00;;;;;;4981673;28;19910;-96
2023/03/27 01:59:10;;;;;;;;;;;10.10;95.00;;;;;;4997944;28;19942;-96
2023/03/27 02:01:38;;;;;;;;;;;10.20;95.10;;;;;;4981091;28;19910;-96
2023/03/27 02:04:06;;;;;;;;;;;10.20;94.90;;;;;;4981392;28;19998;-96
2023/03/27 02:06:37;;;;;;;;;;;10.20;94.80;;;;;;4981675;28;19954;-96
2023/03/27 02:09:10;;;;;;;;;;;10.20;94.60;;;;;;4980386;28;20279;-96
2023/03/27 02:11:40;;;;;;;;;;;10.20;94.70;;;;;;4981391;28;19974;-96
2023/03/27 02:14:15;;;;;;;;;;;10.20;94.80;;;;;;4981545;28;19917;-96
2023/03/27 02:16:47;;;;;;;;;;;10.20;94.60;;;;;;4980964;28;19934;-96
2023/03/27 02:19:24;;;;;;;;;;;10.20;94.60;;;;;;4981574;28;19914;-96
2023/03/27 02:21:55;;;;;;;;;;;10.20;94.50;;;;;;4982016;28;19945;-96
2023/03/27 02:24:25;;;;;;;;;;;10.20;94.50;;;;;;4999050;28;19910;-96
2023/03/27 02:26:58;;;;;;;;;;;10.10;94.30;;;;;;4981146;28;19917;-96
2023/03/27 02:29:30;;;;;;;;;;;10.10;94.10;;;;;;4999245;28;19981;-96
2023/03/27 02:32:16;;;;;;;;;;;10.00;94.20;;;;;;4982127;28;19934;-96
2023/03/27 02:35:04;;;;;;;;;;;10.10;94.70;;;;;;4999136;28;19914;-96
2023/03/27 02:37:43;;;;;;;;;;;10.10;94.70;;;;;;4982174;28;19895;-96
2023/03/27 02:40:20;;;;;;;;;;;10.10;94.70;;;;;;4982546;28;19945;-96
2023/03/27 02:42:57;;;;;;;;;;;10.10;94.60;;;;;;4967063;28;19898;-96
2023/03/27 02:45:42;;;;;;;;;;;10.10;94.40;;;;;;4982172;28;19949;-96
2023/03/27 02:48:12;;;;;;;;;;;10.10;94.30;;;;;;4982553;28;19918;-96
2023/03/27 02:50:58;;;;;;;;;;;10.00;94.20;;;;;;4995703;28;19894;-96
2023/03/27 02:53:29;;;;;;;;;;;9.90;94.20;;;;;;4981964;28;19910;-96
2023/03/27 02:56:03;;;;;;;;;;;9.90;94.30;;;;;;4998106;28;19917;-96
2023/03/27 02:58:38;;;;;;;;;;;9.90;94.40;;;;;;4998583;28;19941;-96
2023/03/27 03:01:08;;;;;;;;;;;9.90;94.70;;;;;;4966238;28;19911;-96
2023/03/27 03:03:40;;;;;;;;;;;9.90;94.80;;;;;;4998061;28;19926;-96
2023/03/27 03:06:10;;;;;;;;;;;9.90;95.00;;;;;;4966452;28;19918;-96
2023/03/27 03:08:42;;;;;;;;;;;9.90;95.10;;;;;;4998917;28;19898;-97
2023/03/27 03:11:15;;;;;;;;;;;10.00;95.10;;;;;;4981890;28;19914;-96
2023/03/27 03:13:51;;;;;;;;;;;10.10;95.00;;;;;;4998495;28;19900;-96
2023/03/27 03:16:24;;;;;;;;;;;10.10;94.80;;;;;;4982076;28;19957;-96
2023/03/27 03:18:58;;;;;;;;;;;10.20;94.60;;;;;;4982542;28;19929;-96
2023/03/27 03:21:30;;;;;;;;;;;10.10;94.50;;;;;;4981283;28;19914;-96
2023/03/27 04:39:16;;;;;;;;;;;9.70;93.30;;;;;;5044985;23;19917;-96
2023/03/27 04:41:59;;;;;;;;;;;9.50;93.40;;;;;;5000973;28;19913;-96
2023/03/27 04:50:50;;;;;;;;;;;9.40;93.70;;;;;;5268871;23;19934;-96
2023/03/27 07:18:17;;;;;;;;;;;9.90;91.30;;;;;;5554006;23;19916;-96
2023/03/27 07:20:43;;;;;;;;;;;9.80;91.60;;;;;;5016360;28;19910;-96
2023/03/27 07:23:10;;;;;;;;;;;9.80;91.80;;;;;;5017728;28;19945;-96
2023/03/27 07:25:36;;;;;;;;;;;9.80;91.90;;;;;;5000481;28;19936;-96
2023/03/27 07:28:04;;;;;;;;;;;9.70;92.20;;;;;;5016933;28;19917;-96
2023/03/27 07:30:31;;;;;;;;;;;9.70;92.30;;;;;;5018996;28;19940;-96
2023/03/27 07:33:00;;;;;;;;;;;9.60;92.40;;;;;;5017564;28;19910;-96
2023/03/27 07:35:26;;;;;;;;;;;9.60;92.30;;;;;;5017333;28;19917;-96
2023/03/27 07:37:53;;;;;;;;;;;9.60;92.20;;;;;;5017528;28;19910;-96
2023/03/27 07:40:21;;;;;;;;;;;9.50;92.30;;;;;;5035845;28;19932;-96
2023/03/27 07:42:50;;;;;;;;;;;9.60;92.30;;;;;;5012064;28;19977;-96
2023/03/27 07:45:16;;;;;;;;;;;9.60;92.30;;;;;;5013372;28;19910;-96
2023/03/27 07:47:42;;;;;;;;;;;9.70;92.40;;;;;;5017646;28;19909;-96
2023/03/27 07:50:10;;;;;;;;;;;9.60;92.60;;;;;;5036546;28;19957;-96
2023/03/27 07:52:44;;;;;;;;;;;9.70;92.70;;;;;;5020036;28;19893;-96
2023/03/27 08:13:21;;;;;;;;;;;10.20;92.50;;;;;;5030615;23;19926;-96
2023/03/27 08:15:54;;;;;;;;;;;10.40;93.00;;;;;;4983062;28;19949;-96
2023/03/27 08:18:40;;;;;;;;;;;10.40;92.80;;;;;;4995781;28;19969;-96
2023/03/27 08:21:07;;;;;;;;;;;10.60;91.90;;;;;;4981326;28;19918;-96
2023/03/27 08:23:33;;;;;;;;;;;10.70;91.30;;;;;;4997419;28;19910;-96
2023/03/27 08:26:03;;;;;;;;;;;10.80;90.90;;;;;;4998404;28;19894;-96
2023/03/27 08:28:42;;;;;;;;;;;10.90;90.10;;;;;;4982834;28;19938;-96
2023/03/27 08:57:15;;;;;;;;;;;12.20;84.60;;;;;;5833857;23;19938;-96
2023/03/27 08:59:47;;;;;;;;;;;12.30;82.40;;;;;;4981625;28;19950;-96
2023/03/27 10:52:10;;;;;;;;;;;18.30;29.20;;;;;;5097288;23;19970;-96
2023/03/27 14:00:03;;;;;;;;;;;20.70;19.80;;;;;;5490308;23;20470;-96
2023/03/27 15:52:18;;;;;;;;;;;19.80;20.90;;;;;;6143280;23;19927;31
2023/03/27 15:55:02;;;;;;;;;;;19.60;20.00;;;;;;4974358;28;19981;-96
2023/03/27 15:57:32;;;;;;;;;;;19.20;21.90;;;;;;4963300;28;19942;-96
